Pratt, Minnesota
Current Conditions -  °F | °C
As of 2:35 AM on Saturday 20 Dec 2014 (Local Time) from KOWA Reporting Station
Haze Haze  
Wind Chill: -7°   Ceiling: Unl
Heat Index: -2°   Visibility: 5mi
Dew Point: -3°   Wind: 10mph
Humidity: 93%   Direction: 160°SSE
Pressure: 30.16"   Gusts: NA
Location:  44.0575°N, 93.2082°W
Report Text: KOWA 200835Z AUTO 16009KT 5SM BR CLR M02/M03 A3016 RMK AO2
Loading
Personal Weather Stations






























Interactive Weather Map New forecast layout! Learn more

10-Day Weather Forecast

Advertisements
Track Severe Weather on mobile